Time;durP1;ratioP1;P1;durP2;ratioP2;P2;SDS_P1;SDS_P2;PMS_P1;PMS_P2;Temp;Humidity;BMP_temperature;BMP_pressure;BME280_temperature;BME280_humidity;BME280_pressure;Samples;Min_cycle;Max_cycle;Signal;HPM_P1;HPM_P2
2023/09/18 00:01:19;;;;;;;1.48;1.38;;;;;;;;;;5004264;28;59491;-71
2023/09/18 00:03:45;;;;;;;0.85;0.85;;;;;;;;;;5005489;28;60377;-71
2023/09/18 00:06:11;;;;;;;1.67;1.58;;;;;;;;;;5006514;28;58405;-70
2023/09/18 00:08:36;;;;;;;1.30;1.20;;;;;;;;;;5005089;28;58512;-71
2023/09/18 00:11:01;;;;;;;1.40;1.30;;;;;;;;;;5012543;28;58441;-70
2023/09/18 00:13:26;;;;;;;1.40;1.30;;;;;;;;;;5006577;28;59120;-69
2023/09/18 00:15:54;;;;;;;1.50;1.40;;;;;;;;;;5005298;28;58457;-70
2023/09/18 00:18:19;;;;;;;1.30;1.20;;;;;;;;;;5012106;28;59873;-70
2023/09/18 00:20:46;;;;;;;1.27;1.17;;;;;;;;;;5006731;28;60386;-70
2023/09/18 00:23:11;;;;;;;1.58;1.35;;;;;;;;;;5009435;28;59547;-70
2023/09/18 00:25:36;;;;;;;1.67;1.58;;;;;;;;;;5002198;28;58483;-70
2023/09/18 00:28:02;;;;;;;1.17;1.17;;;;;;;;;;5004624;28;58556;-69
2023/09/18 00:30:27;;;;;;;1.50;1.40;;;;;;;;;;5003463;28;60647;-71
2023/09/18 00:32:52;;;;;;;1.00;1.00;;;;;;;;;;5004845;28;58503;-70
2023/09/18 00:35:17;;;;;;;1.27;1.17;;;;;;;;;;5007266;28;58456;-70
2023/09/18 00:37:43;;;;;;;1.20;1.10;;;;;;;;;;5004793;28;58756;-69
2023/09/18 00:40:08;;;;;;;1.40;1.30;;;;;;;;;;5004711;28;59697;-69
2023/09/18 00:42:33;;;;;;;1.08;1.00;;;;;;;;;;5006810;28;58877;-70
2023/09/18 00:44:58;;;;;;;1.17;1.10;;;;;;;;;;5008473;28;58468;-70
2023/09/18 00:47:24;;;;;;;1.53;1.40;;;;;;;;;;5008272;28;58411;-70
2023/09/18 00:49:49;;;;;;;1.60;1.50;;;;;;;;;;5007447;28;59804;-70
2023/09/18 00:52:15;;;;;;;1.17;1.15;;;;;;;;;;5001758;28;58984;-69
2023/09/18 00:54:41;;;;;;;1.58;1.48;;;;;;;;;;5004319;28;58430;-70
2023/09/18 00:57:07;;;;;;;1.40;1.30;;;;;;;;;;5001232;28;58856;-70
2023/09/18 00:59:33;;;;;;;1.40;1.30;;;;;;;;;;5006216;28;58529;-70
2023/09/18 01:01:59;;;;;;;1.50;1.40;;;;;;;;;;5005372;28;58431;-70
2023/09/18 01:04:25;;;;;;;1.30;1.10;;;;;;;;;;5004124;28;58771;-70
2023/09/18 01:06:50;;;;;;;1.30;1.20;;;;;;;;;;5003202;28;58672;-70
2023/09/18 01:09:19;;;;;;;0.90;0.90;;;;;;;;;;5002739;28;58626;-70
2023/09/18 01:11:48;;;;;;;1.73;1.63;;;;;;;;;;5002344;28;58595;-70
2023/09/18 01:14:13;;;;;;;1.63;1.52;;;;;;;;;;5021336;28;58480;-70
2023/09/18 01:16:45;;;;;;;1.38;1.30;;;;;;;;;;5010097;28;58800;-70
2023/09/18 01:19:10;;;;;;;1.75;1.65;;;;;;;;;;5006021;28;58482;-70
2023/09/18 01:21:35;;;;;;;1.10;1.10;;;;;;;;;;5010549;28;58365;-70
2023/09/18 01:24:00;;;;;;;2.00;1.90;;;;;;;;;;5010878;28;58464;-70
2023/09/18 01:26:25;;;;;;;1.48;1.38;;;;;;;;;;5007621;28;58456;-70
2023/09/18 01:28:51;;;;;;;1.35;1.35;;;;;;;;;;5008352;28;58484;-73
2023/09/18 01:31:17;;;;;;;1.50;1.40;;;;;;;;;;5008762;28;58656;-72
2023/09/18 01:33:44;;;;;;;1.50;1.40;;;;;;;;;;5006845;28;58615;-72
2023/09/18 01:36:10;;;;;;;1.63;1.52;;;;;;;;;;5006387;28;59444;-72
2023/09/18 01:38:36;;;;;;;1.40;1.30;;;;;;;;;;5005287;28;58522;-73
2023/09/18 01:41:01;;;;;;;1.60;1.50;;;;;;;;;;5010533;28;58375;-72
2023/09/18 01:43:26;;;;;;;1.67;1.57;;;;;;;;;;5008460;28;60931;-73
2023/09/18 01:45:52;;;;;;;1.40;1.30;;;;;;;;;;5008727;28;58445;-72
2023/09/18 01:48:18;;;;;;;1.77;1.67;;;;;;;;;;5008210;28;59401;-72
2023/09/18 01:50:43;;;;;;;1.23;1.20;;;;;;;;;;5005435;28;59848;-73
2023/09/18 01:53:08;;;;;;;1.50;1.40;;;;;;;;;;5008804;28;58698;-72
2023/09/18 01:55:34;;;;;;;1.65;1.55;;;;;;;;;;5005767;28;59294;-73
2023/09/18 01:57:59;;;;;;;1.70;1.60;;;;;;;;;;5005076;28;58602;-72
2023/09/18 02:00:24;;;;;;;1.60;1.50;;;;;;;;;;5004604;28;58387;-72
2023/09/18 02:02:49;;;;;;;1.37;1.27;;;;;;;;;;5004875;28;59363;-72
2023/09/18 02:05:14;;;;;;;1.50;1.40;;;;;;;;;;5009983;28;58813;-73
2023/09/18 02:07:40;;;;;;;1.60;1.50;;;;;;;;;;5005075;28;59643;-72
2023/09/18 02:10:05;;;;;;;1.30;1.20;;;;;;;;;;5006768;28;58983;-73
2023/09/18 02:12:30;;;;;;;1.35;1.25;;;;;;;;;;5006905;28;58440;-73
2023/09/18 02:14:58;;;;;;;1.53;1.43;;;;;;;;;;5006133;28;60417;-72
2023/09/18 02:17:23;;;;;;;1.45;1.35;;;;;;;;;;5005992;28;59064;-73
2023/09/18 02:19:48;;;;;;;1.80;1.70;;;;;;;;;;5008072;28;58778;-73
2023/09/18 02:22:13;;;;;;;1.33;1.23;;;;;;;;;;5006660;28;58654;-72
2023/09/18 02:24:38;;;;;;;1.30;1.20;;;;;;;;;;5007381;28;59016;-72
2023/09/18 02:27:05;;;;;;;1.37;1.27;;;;;;;;;;5009738;28;58590;-72
2023/09/18 02:29:30;;;;;;;1.30;1.20;;;;;;;;;;5007034;28;58840;-73
2023/09/18 02:31:55;;;;;;;1.65;1.55;;;;;;;;;;5008567;28;58427;-72
2023/09/18 02:34:20;;;;;;;1.67;1.57;;;;;;;;;;5009156;28;58599;-72
2023/09/18 02:36:45;;;;;;;1.50;1.40;;;;;;;;;;5007952;28;59566;-73
2023/09/18 02:39:10;;;;;;;1.67;1.57;;;;;;;;;;5008274;28;58319;-70
2023/09/18 02:41:36;;;;;;;1.42;1.33;;;;;;;;;;5020766;28;60516;-70
2023/09/18 02:44:01;;;;;;;1.42;1.33;;;;;;;;;;5008668;28;58823;-70
2023/09/18 02:46:26;;;;;;;1.92;1.58;;;;;;;;;;5006999;28;58517;-70
2023/09/18 02:48:51;;;;;;;1.43;1.33;;;;;;;;;;5009035;28;59308;-70
2023/09/18 02:51:16;;;;;;;1.57;1.47;;;;;;;;;;5005813;28;58540;-69
2023/09/18 02:53:41;;;;;;;1.30;1.20;;;;;;;;;;5003232;28;59890;-69
2023/09/18 02:56:07;;;;;;;2.35;1.92;;;;;;;;;;5006114;28;58422;-69
2023/09/18 02:58:32;;;;;;;1.67;1.58;;;;;;;;;;5007494;28;58557;-70
2023/09/18 03:01:02;;;;;;;1.60;1.48;;;;;;;;;;5006111;28;60492;-69
2023/09/18 03:03:27;;;;;;;1.58;1.48;;;;;;;;;;5005556;28;58435;-69
2023/09/18 03:05:52;;;;;;;1.20;1.05;;;;;;;;;;5009785;28;58523;-70
2023/09/18 03:08:18;;;;;;;1.00;1.00;;;;;;;;;;5008685;28;58866;-69
2023/09/18 03:10:43;;;;;;;1.73;1.63;;;;;;;;;;5007539;28;59100;-70
2023/09/18 03:13:09;;;;;;;2.20;1.33;;;;;;;;;;5010722;28;58580;-70
2023/09/18 03:15:34;;;;;;;1.35;1.25;;;;;;;;;;5005396;28;58397;-70
2023/09/18 03:18:00;;;;;;;1.40;1.30;;;;;;;;;;5005496;28;58439;-70
2023/09/18 03:20:26;;;;;;;1.58;1.48;;;;;;;;;;5010046;28;59449;-70
2023/09/18 03:22:52;;;;;;;1.48;1.38;;;;;;;;;;5005745;28;59038;-70
2023/09/18 03:25:17;;;;;;;1.48;1.38;;;;;;;;;;5007605;28;58550;-70
2023/09/18 03:27:42;;;;;;;1.47;1.37;;;;;;;;;;5009545;28;60115;-70
2023/09/18 03:30:08;;;;;;;1.40;1.30;;;;;;;;;;5010166;28;58888;-70
2023/09/18 03:32:33;;;;;;;1.75;1.65;;;;;;;;;;5009085;28;58446;-70
2023/09/18 03:34:58;;;;;;;1.47;1.40;;;;;;;;;;5006578;28;58565;-70
2023/09/18 03:37:23;;;;;;;1.52;1.42;;;;;;;;;;5005924;28;58416;-70
2023/09/18 03:39:48;;;;;;;1.67;1.58;;;;;;;;;;5008296;28;58362;-70
2023/09/18 03:42:13;;;;;;;1.30;1.20;;;;;;;;;;5005370;28;59318;-70
2023/09/18 03:44:39;;;;;;;1.30;1.20;;;;;;;;;;5004270;28;58426;-70
2023/09/18 03:47:04;;;;;;;1.17;1.13;;;;;;;;;;5005197;28;59306;-70
2023/09/18 03:49:29;;;;;;;1.67;1.58;;;;;;;;;;5008120;28;59823;-72
2023/09/18 03:51:55;;;;;;;1.85;1.75;;;;;;;;;;5004046;28;58338;-72
2023/09/18 03:54:20;;;;;;;1.33;1.27;;;;;;;;;;5008522;28;58405;-72
2023/09/18 03:56:46;;;;;;;1.87;1.63;;;;;;;;;;5008846;28;58471;-73
2023/09/18 03:59:11;;;;;;;1.35;1.25;;;;;;;;;;5009157;28;58735;-73
2023/09/18 04:01:36;;;;;;;1.70;1.60;;;;;;;;;;5002466;28;59410;-73
2023/09/18 04:04:02;;;;;;;1.83;1.08;;;;;;;;;;5007468;28;58553;-72
2023/09/18 04:06:35;;;;;;;1.60;1.50;;;;;;;;;;4993163;28;58655;-73
2023/09/18 04:09:00;;;;;;;1.33;1.23;;;;;;;;;;5006822;28;58893;-72
2023/09/18 04:11:26;;;;;;;1.77;1.30;;;;;;;;;;5004442;28;58571;-73
2023/09/18 04:13:51;;;;;;;1.40;1.30;;;;;;;;;;5010139;28;59646;-72
2023/09/18 04:16:17;;;;;;;1.75;1.40;;;;;;;;;;5009948;28;58613;-73
2023/09/18 04:18:42;;;;;;;1.50;1.40;;;;;;;;;;5006043;28;59449;-73
2023/09/18 04:21:08;;;;;;;1.30;1.20;;;;;;;;;;5005193;28;58940;-73
2023/09/18 04:23:33;;;;;;;1.55;1.45;;;;;;;;;;5006386;28;58390;-72
2023/09/18 04:25:59;;;;;;;1.35;1.25;;;;;;;;;;5004686;28;59782;-72
2023/09/18 04:28:24;;;;;;;1.30;1.30;;;;;;;;;;5011119;28;58568;-73
2023/09/18 04:30:49;;;;;;;1.33;1.23;;;;;;;;;;5005676;28;58433;-73
2023/09/18 04:33:14;;;;;;;1.80;1.70;;;;;;;;;;5006455;28;58525;-73
2023/09/18 04:35:40;;;;;;;1.47;1.37;;;;;;;;;;5002332;28;58903;-73
2023/09/18 04:38:11;;;;;;;1.33;1.23;;;;;;;;;;5005328;28;59626;-72
2023/09/18 04:40:36;;;;;;;1.10;1.10;;;;;;;;;;5010358;28;58534;-72
2023/09/18 04:43:04;;;;;;;1.38;1.27;;;;;;;;;;5002412;28;58375;-72
2023/09/18 04:45:29;;;;;;;1.70;1.60;;;;;;;;;;5004495;28;59302;-72
2023/09/18 04:47:54;;;;;;;1.10;1.10;;;;;;;;;;5006097;28;59169;-72
2023/09/18 04:50:20;;;;;;;1.60;1.50;;;;;;;;;;5007390;28;58520;-72
2023/09/18 04:52:45;;;;;;;1.40;1.30;;;;;;;;;;5007184;28;59701;-72
2023/09/18 04:55:11;;;;;;;1.70;1.60;;;;;;;;;;5009189;28;60392;-72
2023/09/18 04:57:36;;;;;;;1.08;1.05;;;;;;;;;;5008202;28;58418;-72
2023/09/18 05:00:02;;;;;;;1.25;1.20;;;;;;;;;;5005681;28;59328;-73
2023/09/18 05:02:27;;;;;;;1.30;1.20;;;;;;;;;;5009701;28;58355;-73
2023/09/18 05:04:53;;;;;;;1.83;0.90;;;;;;;;;;4996705;28;58735;-73
2023/09/18 05:07:18;;;;;;;1.60;1.50;;;;;;;;;;4998346;28;58706;-72
2023/09/18 05:09:43;;;;;;;2.50;2.30;;;;;;;;;;5009226;28;58446;-70
2023/09/18 05:12:13;;;;;;;1.70;1.60;;;;;;;;;;5007924;28;60298;-70
2023/09/18 05:14:38;;;;;;;1.77;1.67;;;;;;;;;;5005375;28;59173;-70
2023/09/18 05:17:03;;;;;;;1.60;1.50;;;;;;;;;;5004271;28;58493;-70
2023/09/18 05:19:28;;;;;;;1.43;1.37;;;;;;;;;;5012914;28;60281;-70
2023/09/18 05:21:54;;;;;;;1.55;1.45;;;;;;;;;;5011796;28;58480;-69
2023/09/18 05:24:26;;;;;;;1.53;1.43;;;;;;;;;;5010259;28;59803;-70
2023/09/18 05:26:52;;;;;;;1.58;1.48;;;;;;;;;;5007672;28;58509;-70
2023/09/18 05:29:18;;;;;;;1.92;1.80;;;;;;;;;;5011467;28;58387;-70
2023/09/18 05:31:43;;;;;;;1.50;1.40;;;;;;;;;;5007860;28;58567;-70
2023/09/18 05:34:09;;;;;;;1.63;1.53;;;;;;;;;;5006560;28;58526;-69
2023/09/18 05:36:34;;;;;;;1.75;1.65;;;;;;;;;;5008965;28;58441;-70
2023/09/18 05:38:59;;;;;;;1.40;1.30;;;;;;;;;;5009420;28;59283;-70
2023/09/18 05:41:26;;;;;;;1.70;1.60;;;;;;;;;;5008303;28;58501;-69
2023/09/18 05:43:51;;;;;;;1.95;1.65;;;;;;;;;;5009940;28;58681;-70
2023/09/18 05:46:17;;;;;;;2.10;1.90;;;;;;;;;;5005599;28;58542;-70
2023/09/18 05:48:42;;;;;;;1.67;1.58;;;;;;;;;;5007289;28;58351;-70
2023/09/18 05:51:07;;;;;;;1.80;1.70;;;;;;;;;;5009554;28;59365;-70
2023/09/18 05:53:34;;;;;;;1.63;1.52;;;;;;;;;;5007425;28;58593;-69
2023/09/18 05:56:03;;;;;;;2.28;1.40;;;;;;;;;;5010090;28;58454;-69
2023/09/18 05:58:31;;;;;;;1.67;1.58;;;;;;;;;;5008631;28;59085;-70
2023/09/18 06:00:56;;;;;;;;;;;;;;;;;;5009560;28;58626;-70
2023/09/18 06:03:21;;;;;;;1.60;1.50;;;;;;;;;;5005198;28;59646;-70
2023/09/18 06:05:47;;;;;;;2.37;1.57;;;;;;;;;;5006719;28;60033;-70
2023/09/18 06:08:12;;;;;;;1.00;1.00;;;;;;;;;;5010459;28;58410;-70
2023/09/18 06:10:37;;;;;;;1.50;1.40;;;;;;;;;;5010022;28;60586;-69
2023/09/18 06:13:04;;;;;;;1.52;1.42;;;;;;;;;;5007908;28;58683;-69
2023/09/18 06:15:29;;;;;;;2.90;1.60;;;;;;;;;;5007546;28;58419;-71
2023/09/18 06:17:54;;;;;;;1.67;1.57;;;;;;;;;;5008465;28;59426;-69
2023/09/18 06:20:19;;;;;;;2.72;1.75;;;;;;;;;;5011698;28;60005;-72
2023/09/18 06:22:44;;;;;;;2.13;1.67;;;;;;;;;;5010355;28;58429;-72
2023/09/18 06:25:09;;;;;;;1.80;1.70;;;;;;;;;;5010256;28;58918;-72
2023/09/18 06:27:36;;;;;;;1.93;1.77;;;;;;;;;;5006231;28;59912;-73
2023/09/18 06:30:01;;;;;;;1.42;1.15;;;;;;;;;;5008283;28;60288;-72
2023/09/18 06:32:27;;;;;;;1.52;1.42;;;;;;;;;;5008664;28;58588;-72
2023/09/18 06:34:52;;;;;;;1.67;1.50;;;;;;;;;;5014082;28;58437;-72
2023/09/18 06:37:18;;;;;;;1.77;1.67;;;;;;;;;;5010552;28;58827;-72
2023/09/18 06:39:43;;;;;;;3.80;2.25;;;;;;;;;;5006720;28;59672;-74
2023/09/18 06:42:09;;;;;;;1.53;1.40;;;;;;;;;;5008838;28;58412;-72
2023/09/18 06:44:34;;;;;;;1.70;1.35;;;;;;;;;;5010779;28;59603;-72
2023/09/18 06:46:59;;;;;;;1.40;1.30;;;;;;;;;;5008075;28;58472;-72
2023/09/18 06:49:24;;;;;;;2.50;2.13;;;;;;;;;;5008796;28;61047;-73
2023/09/18 06:51:50;;;;;;;2.17;1.90;;;;;;;;;;5004974;28;58481;-71
2023/09/18 06:54:15;;;;;;;3.40;1.52;;;;;;;;;;5009778;28;58514;-72
2023/09/18 06:56:41;;;;;;;2.47;1.80;;;;;;;;;;5009124;28;58609;-72
2023/09/18 06:59:06;;;;;;;2.38;1.50;;;;;;;;;;5006414;28;58391;-73
2023/09/18 07:01:32;;;;;;;1.70;1.60;;;;;;;;;;5005401;28;58637;-72
2023/09/18 07:03:59;;;;;;;1.88;1.63;;;;;;;;;;5007628;28;59888;-72
2023/09/18 07:06:24;;;;;;;1.75;1.65;;;;;;;;;;5003837;28;59111;-72
2023/09/18 07:08:49;;;;;;;2.00;1.90;;;;;;;;;;5009724;28;60343;-72
2023/09/18 07:11:15;;;;;;;1.70;1.60;;;;;;;;;;5007050;28;60387;-72
2023/09/18 07:13:40;;;;;;;1.92;1.83;;;;;;;;;;5012164;28;58447;-73
2023/09/18 07:16:06;;;;;;;2.23;1.47;;;;;;;;;;5005503;28;58630;-72
2023/09/18 07:18:31;;;;;;;2.13;1.90;;;;;;;;;;5005008;28;58402;-73
2023/09/18 07:20:56;;;;;;;2.00;1.60;;;;;;;;;;5010384;28;58649;-72
2023/09/18 07:23:21;;;;;;;1.97;1.87;;;;;;;;;;5010590;28;58717;-73
2023/09/18 07:25:49;;;;;;;1.50;1.40;;;;;;;;;;5006875;28;58715;-73
2023/09/18 07:28:17;;;;;;;;;;;;;;;;;;5010543;28;58577;-73
2023/09/18 07:30:43;;;;;;;1.48;1.38;;;;;;;;;;5004851;28;58658;-70
2023/09/18 07:33:08;;;;;;;2.53;1.38;;;;;;;;;;5008219;28;58393;-69
2023/09/18 07:35:33;;;;;;;1.43;1.33;;;;;;;;;;5006066;28;59657;-69
2023/09/18 07:37:59;;;;;;;1.60;1.50;;;;;;;;;;5009264;28;59597;-69
2023/09/18 07:40:24;;;;;;;1.80;1.67;;;;;;;;;;5008518;28;58453;-70
2023/09/18 07:42:49;;;;;;;1.23;1.13;;;;;;;;;;5006275;28;59466;-69
2023/09/18 07:45:14;;;;;;;1.40;1.30;;;;;;;;;;5006978;28;59089;-69
2023/09/18 07:47:39;;;;;;;1.97;1.30;;;;;;;;;;5009757;28;58748;-69
2023/09/18 07:50:06;;;;;;;1.70;1.60;;;;;;;;;;5005580;28;58454;-70
2023/09/18 07:52:31;;;;;;;1.73;1.58;;;;;;;;;;5004206;28;58319;-70
2023/09/18 07:54:58;;;;;;;1.17;1.10;;;;;;;;;;5007069;28;59469;-70
2023/09/18 07:57:23;;;;;;;1.58;1.48;;;;;;;;;;5009285;28;58876;-70
2023/09/18 07:59:48;;;;;;;3.90;1.57;;;;;;;;;;5005332;28;58864;-70
2023/09/18 08:02:13;;;;;;;1.43;1.33;;;;;;;;;;5011375;28;58548;-71
2023/09/18 08:04:39;;;;;;;1.70;1.60;;;;;;;;;;5010171;28;59951;-71
2023/09/18 08:07:07;;;;;;;1.33;1.05;;;;;;;;;;5007811;28;58356;-70
2023/09/18 08:09:36;;;;;;;1.52;1.42;;;;;;;;;;5010171;28;59619;-70
2023/09/18 08:12:01;;;;;;;2.38;1.75;;;;;;;;;;5010967;28;58490;-72
2023/09/18 08:14:26;;;;;;;1.37;1.27;;;;;;;;;;5005220;28;59551;-70
2023/09/18 08:16:56;;;;;;;1.15;1.10;;;;;;;;;;5006063;28;58926;-71
2023/09/18 08:19:23;;;;;;;1.55;1.45;;;;;;;;;;5004587;28;58340;-71
2023/09/18 08:21:48;;;;;;;1.30;1.30;;;;;;;;;;5007246;28;59488;-70
2023/09/18 08:24:13;;;;;;;1.30;1.20;;;;;;;;;;5004487;28;60349;-71
2023/09/18 08:26:39;;;;;;;1.57;1.40;;;;;;;;;;5009266;28;58512;-71
2023/09/18 08:29:04;;;;;;;2.17;1.98;;;;;;;;;;5006128;28;61030;-71
2023/09/18 08:31:31;;;;;;;3.97;1.53;;;;;;;;;;5009303;28;59106;-72
2023/09/18 08:33:56;;;;;;;1.77;1.40;;;;;;;;;;5007658;28;59708;-70
2023/09/18 08:36:22;;;;;;;1.63;1.20;;;;;;;;;;5007999;28;59922;-69
2023/09/18 08:38:47;;;;;;;1.30;1.20;;;;;;;;;;5007850;28;58540;-70
2023/09/18 08:41:13;;;;;;;3.47;1.55;;;;;;;;;;5025284;28;61502;-78
2023/09/18 08:43:42;;;;;;;2.65;2.40;;;;;;;;;;5003998;28;58646;-78
2023/09/18 08:46:07;;;;;;;1.80;1.50;;;;;;;;;;5004997;28;59333;-79
2023/09/18 08:48:36;;;;;;;1.97;1.77;;;;;;;;;;5005298;28;58642;-77
2023/09/18 08:51:04;;;;;;;1.70;1.60;;;;;;;;;;5006113;28;58532;-75
2023/09/18 08:53:30;;;;;;;2.28;1.77;;;;;;;;;;5009128;28;58598;-79
2023/09/18 08:55:58;;;;;;;2.45;1.92;;;;;;;;;;5007737;28;63696;-73
2023/09/18 08:58:23;;;;;;;2.80;1.75;;;;;;;;;;5005104;28;58522;-75
2023/09/18 09:00:49;;;;;;;2.65;2.10;;;;;;;;;;5008615;28;60786;-74
2023/09/18 09:03:15;;;;;;;2.42;2.10;;;;;;;;;;5005800;28;58997;-75
2023/09/18 09:05:40;;;;;;;1.03;1.03;;;;;;;;;;5010809;28;58772;-76
2023/09/18 09:08:05;;;;;;;1.53;1.40;;;;;;;;;;5004807;28;59963;-74
2023/09/18 09:10:30;;;;;;;1.60;1.50;;;;;;;;;;5007655;28;59152;-75
2023/09/18 09:12:59;;;;;;;3.13;1.90;;;;;;;;;;5004144;28;58394;-73
2023/09/18 09:15:28;;;;;;;1.80;1.70;;;;;;;;;;5006412;28;58733;-78
2023/09/18 09:18:07;;;;;;;1.40;1.30;;;;;;;;;;5003114;28;58425;-77
2023/09/18 09:20:32;;;;;;;2.95;2.05;;;;;;;;;;5001518;28;61839;-74
2023/09/18 09:23:01;;;;;;;1.88;1.77;;;;;;;;;;5007809;28;58414;-74
2023/09/18 09:25:28;;;;;;;2.55;1.05;;;;;;;;;;5005349;28;58439;-74
2023/09/18 09:27:56;;;;;;;1.42;1.33;;;;;;;;;;5007879;28;61030;-74
2023/09/18 09:30:23;;;;;;;1.45;1.33;;;;;;;;;;5001739;28;58872;-74
2023/09/18 09:32:52;;;;;;;1.48;1.38;;;;;;;;;;5006595;28;58567;-74
2023/09/18 09:35:28;;;;;;;3.30;1.73;;;;;;;;;;5008183;28;59661;-73
2023/09/18 09:37:56;;;;;;;1.33;1.23;;;;;;;;;;5002341;28;59970;-73
2023/09/18 09:40:22;;;;;;;1.65;1.55;;;;;;;;;;5004326;28;59556;-75
2023/09/18 09:42:47;;;;;;;2.20;1.55;;;;;;;;;;5008918;28;58438;-74
2023/09/18 09:45:17;;;;;;;4.53;1.58;;;;;;;;;;5007919;28;58434;-75
2023/09/18 09:47:43;;;;;;;2.10;1.90;;;;;;;;;;5009337;28;59975;-73
2023/09/18 09:50:13;;;;;;;6.30;2.00;;;;;;;;;;5011683;28;58871;-66
2023/09/18 09:52:43;;;;;;;1.98;1.83;;;;;;;;;;5008941;28;58606;-69
2023/09/18 09:55:25;;;;;;;2.97;2.30;;;;;;;;;;5010980;28;59359;-69
2023/09/18 09:57:52;;;;;;;3.47;1.63;;;;;;;;;;5008950;28;59262;-69
2023/09/18 10:00:26;;;;;;;2.58;1.80;;;;;;;;;;5008861;28;58535;-71
2023/09/18 10:02:59;;;;;;;3.35;1.73;;;;;;;;;;5009758;28;60158;-69
2023/09/18 10:05:27;;;;;;;3.38;1.88;;;;;;;;;;5001823;28;58941;-69
2023/09/18 10:07:52;;;;;;;9.07;2.28;;;;;;;;;;5009784;28;59563;-70
2023/09/18 10:10:18;;;;;;;4.35;1.92;;;;;;;;;;5007080;28;58480;-71
2023/09/18 10:12:43;;;;;;;4.93;3.03;;;;;;;;;;5010051;28;58399;-70
2023/09/18 10:15:11;;;;;;;4.20;2.55;;;;;;;;;;5007328;28;59419;-72
2023/09/18 10:17:36;;;;;;;2.33;1.88;;;;;;;;;;5011817;28;59040;-69
2023/09/18 10:20:10;;;;;;;4.22;2.45;;;;;;;;;;5006881;28;58449;-67
2023/09/18 10:22:42;;;;;;;4.35;2.72;;;;;;;;;;5009007;28;58774;-68
2023/09/18 10:25:11;;;;;;;4.30;1.95;;;;;;;;;;5008355;28;58409;-70
2023/09/18 10:27:38;;;;;;;3.17;2.65;;;;;;;;;;5009115;28;58544;-68
2023/09/18 10:30:04;;;;;;;2.55;2.33;;;;;;;;;;5006704;28;60133;-69
2023/09/18 10:32:30;;;;;;;5.32;2.35;;;;;;;;;;5007575;28;58722;-69
2023/09/18 10:34:55;;;;;;;3.90;2.45;;;;;;;;;;5008903;28;64198;-69
2023/09/18 10:37:22;;;;;;;2.28;1.80;;;;;;;;;;5020250;28;59434;-69
2023/09/18 10:39:49;;;;;;;4.78;2.30;;;;;;;;;;5009533;28;58374;-71
2023/09/18 10:42:16;;;;;;;2.58;1.90;;;;;;;;;;5009477;28;59497;-70
2023/09/18 10:44:42;;;;;;;4.13;1.40;;;;;;;;;;5010362;28;58528;-71
2023/09/18 10:47:08;;;;;;;2.13;1.75;;;;;;;;;;5009403;28;59251;-71
2023/09/18 10:49:35;;;;;;;4.60;2.33;;;;;;;;;;5007261;28;59875;-69
2023/09/18 10:52:00;;;;;;;1.88;1.30;;;;;;;;;;5008934;28;58395;-71
2023/09/18 10:54:27;;;;;;;1.80;1.70;;;;;;;;;;5007623;28;59087;-71
2023/09/18 10:56:52;;;;;;;2.88;1.65;;;;;;;;;;5000810;28;58921;-70
2023/09/18 10:59:18;;;;;;;7.15;1.98;;;;;;;;;;5009297;28;58416;-72
2023/09/18 11:01:44;;;;;;;2.50;1.60;;;;;;;;;;5004733;28;60372;-74
2023/09/18 11:04:10;;;;;;;1.40;1.30;;;;;;;;;;5008943;28;60578;-74
2023/09/18 11:06:53;;;;;;;2.60;1.25;;;;;;;;;;5008212;28;59613;-72
2023/09/18 11:09:22;;;;;;;1.63;1.35;;;;;;;;;;5006434;28;58420;-70
2023/09/18 11:11:52;;;;;;;1.27;1.17;;;;;;;;;;5004538;28;58521;-73
2023/09/18 11:14:17;;;;;;;2.05;1.95;;;;;;;;;;5009790;28;60727;-72
2023/09/18 11:16:43;;;;;;;4.13;1.80;;;;;;;;;;5008841;28;59029;-74
2023/09/18 11:19:10;;;;;;;1.40;1.30;;;;;;;;;;5008707;28;58505;-77
2023/09/18 11:21:36;;;;;;;2.53;1.63;;;;;;;;;;5008588;28;59504;-69
2023/09/18 11:24:05;;;;;;;1.73;1.30;;;;;;;;;;5002365;28;58487;-74
2023/09/18 11:26:36;;;;;;;4.32;2.08;;;;;;;;;;5008774;28;58429;-73
2023/09/18 11:29:05;;;;;;;1.63;1.25;;;;;;;;;;5008856;28;59095;-73
2023/09/18 11:31:43;;;;;;;1.50;1.10;;;;;;;;;;5007846;28;58757;-73
2023/09/18 11:34:14;;;;;;;1.42;1.33;;;;;;;;;;5009467;28;59241;-71
2023/09/18 11:36:40;;;;;;;1.45;1.17;;;;;;;;;;5012582;28;59018;-71
2023/09/18 11:39:05;;;;;;;1.33;1.23;;;;;;;;;;5008430;28;58502;-71
2023/09/18 11:41:31;;;;;;;2.50;1.60;;;;;;;;;;5005692;28;59491;-71
2023/09/18 11:44:17;;;;;;;3.58;2.05;;;;;;;;;;5006995;28;58921;-71
2023/09/18 11:46:47;;;;;;;1.35;1.05;;;;;;;;;;4996437;28;58684;-72
2023/09/18 11:49:13;;;;;;;0.98;0.98;;;;;;;;;;5002366;28;58557;-72
2023/09/18 11:51:38;;;;;;;1.33;0.95;;;;;;;;;;5005933;28;58442;-74
2023/09/18 11:54:05;;;;;;;0.95;0.85;;;;;;;;;;5003913;28;60124;-71
2023/09/18 11:56:30;;;;;;;2.00;1.20;;;;;;;;;;5006355;28;59327;-72
2023/09/18 11:58:55;;;;;;;3.38;1.83;;;;;;;;;;5009281;28;58481;-74
2023/09/18 12:01:22;;;;;;;1.83;1.23;;;;;;;;;;5007953;28;58854;-73
2023/09/18 12:04:14;;;;;;;1.77;1.67;;;;;;;;;;5006909;28;59768;-70
2023/09/18 12:06:40;;;;;;;3.83;1.40;;;;;;;;;;5002220;28;58677;-68
2023/09/18 12:09:05;;;;;;;4.13;1.95;;;;;;;;;;5003340;28;60201;-74
2023/09/18 12:11:30;;;;;;;3.35;1.60;;;;;;;;;;5004376;28;58402;-75
2023/09/18 12:13:55;;;;;;;1.70;1.60;;;;;;;;;;5002728;28;58496;-76
2023/09/18 12:16:21;;;;;;;2.93;1.47;;;;;;;;;;4997950;28;59175;-77
2023/09/18 12:18:48;;;;;;;2.65;1.67;;;;;;;;;;4999286;28;58597;-75
2023/09/18 12:21:14;;;;;;;1.30;1.08;;;;;;;;;;5003071;28;59029;-70
2023/09/18 12:23:39;;;;;;;1.05;1.05;;;;;;;;;;5001433;28;59219;-74
2023/09/18 12:26:06;;;;;;;1.83;1.17;;;;;;;;;;5003423;28;58388;-73
2023/09/18 12:28:32;;;;;;;1.58;1.48;;;;;;;;;;5007193;28;59552;-76
2023/09/18 12:30:58;;;;;;;2.58;1.50;;;;;;;;;;5007403;28;60590;-74
2023/09/18 12:33:23;;;;;;;1.17;1.08;;;;;;;;;;5005062;28;59478;-76
2023/09/18 12:35:49;;;;;;;1.37;1.23;;;;;;;;;;5003611;28;60285;-73
2023/09/18 12:38:15;;;;;;;1.58;1.17;;;;;;;;;;5009516;28;58694;-74
2023/09/18 12:40:41;;;;;;;4.18;1.38;;;;;;;;;;5006221;28;60257;-74
2023/09/18 12:43:07;;;;;;;5.32;1.77;;;;;;;;;;5003982;28;60178;-76
2023/09/18 12:45:33;;;;;;;2.08;1.30;;;;;;;;;;5005782;28;58276;-72
2023/09/18 12:47:59;;;;;;;6.82;1.80;;;;;;;;;;5005081;28;58522;-70
2023/09/18 12:50:25;;;;;;;2.05;1.38;;;;;;;;;;5005383;28;59004;-73
2023/09/18 12:52:50;;;;;;;2.95;1.00;;;;;;;;;;5005711;28;58395;-73
2023/09/18 12:55:25;;;;;;;2.10;1.10;;;;;;;;;;5003231;28;58528;-73
2023/09/18 12:57:51;;;;;;;1.60;1.02;;;;;;;;;;4999346;28;58403;-76
2023/09/18 13:00:19;;;;;;;2.35;1.20;;;;;;;;;;5001074;28;58611;-73
2023/09/18 13:02:45;;;;;;;3.08;0.80;;;;;;;;;;5000688;28;58468;-75
2023/09/18 13:05:10;;;;;;;1.47;0.90;;;;;;;;;;5004918;28;58497;-75
2023/09/18 13:07:43;;;;;;;3.50;1.50;;;;;;;;;;5009110;28;58479;-74
2023/09/18 13:10:11;;;;;;;1.85;0.77;;;;;;;;;;5009798;28;58764;-75
2023/09/18 13:12:39;;;;;;;2.33;1.05;;;;;;;;;;5009310;28;58402;-77
2023/09/18 13:15:08;;;;;;;0.90;0.85;;;;;;;;;;5009181;28;59305;-73
2023/09/18 13:17:37;;;;;;;1.42;0.90;;;;;;;;;;5010080;28;58389;-76
2023/09/18 13:20:07;;;;;;;1.25;0.98;;;;;;;;;;5015022;28;58523;-71
2023/09/18 13:22:32;;;;;;;2.92;0.85;;;;;;;;;;5013161;28;58350;-69
2023/09/18 13:24:58;;;;;;;1.50;1.10;;;;;;;;;;5007285;28;58946;-70
2023/09/18 13:27:24;;;;;;;1.00;0.90;;;;;;;;;;5014790;28;60373;-72
2023/09/18 13:29:49;;;;;;;1.23;1.03;;;;;;;;;;5012079;28;58842;-70
2023/09/18 13:32:14;;;;;;;1.33;0.98;;;;;;;;;;5011343;28;58310;-68
2023/09/18 13:34:39;;;;;;;2.55;1.45;;;;;;;;;;5006416;28;60297;-71
2023/09/18 13:37:05;;;;;;;4.50;0.93;;;;;;;;;;5006808;28;58598;-70
2023/09/18 13:39:30;;;;;;;1.57;1.00;;;;;;;;;;5007128;28;59778;-71
2023/09/18 13:41:56;;;;;;;1.15;0.90;;;;;;;;;;5006503;28;59133;-70
2023/09/18 13:44:21;;;;;;;2.08;1.00;;;;;;;;;;5004903;28;58450;-71
2023/09/18 13:46:46;;;;;;;2.30;1.00;;;;;;;;;;5006671;28;58624;-71
2023/09/18 13:49:11;;;;;;;1.48;0.85;;;;;;;;;;5008576;28;58968;-71
2023/09/18 13:51:37;;;;;;;1.70;0.80;;;;;;;;;;5024558;28;58420;-71
2023/09/18 13:54:03;;;;;;;0.60;0.60;;;;;;;;;;5010152;28;60942;-71
2023/09/18 13:56:29;;;;;;;2.15;0.90;;;;;;;;;;5008289;28;58808;-74
2023/09/18 13:58:55;;;;;;;1.50;0.80;;;;;;;;;;5008396;28;58423;-70
2023/09/18 14:01:21;;;;;;;1.65;1.05;;;;;;;;;;5008634;28;59692;-70
2023/09/18 14:03:46;;;;;;;0.65;0.50;;;;;;;;;;5021959;28;58508;-70
2023/09/18 14:06:11;;;;;;;2.55;0.90;;;;;;;;;;5006877;28;59361;-70
2023/09/18 14:08:39;;;;;;;1.60;0.63;;;;;;;;;;5005635;28;58442;-71
2023/09/18 14:11:06;;;;;;;0.85;0.60;;;;;;;;;;5009024;28;58439;-70
2023/09/18 14:13:31;;;;;;;4.68;1.35;;;;;;;;;;5005763;28;58831;-71
2023/09/18 14:15:56;;;;;;;1.53;0.70;;;;;;;;;;5021722;28;60269;-73
2023/09/18 14:18:21;;;;;;;2.38;0.50;;;;;;;;;;5002216;28;58486;-72
2023/09/18 14:20:46;;;;;;;1.52;0.70;;;;;;;;;;5005382;28;58507;-70
2023/09/18 14:23:12;;;;;;;0.70;0.70;;;;;;;;;;5008749;28;58576;-70
2023/09/18 14:25:37;;;;;;;1.57;0.60;;;;;;;;;;5008524;28;59870;-73
2023/09/18 14:28:02;;;;;;;1.60;0.83;;;;;;;;;;5008742;28;59034;-73
2023/09/18 14:30:31;;;;;;;1.50;0.77;;;;;;;;;;5012340;28;58410;-70
2023/09/18 14:32:56;;;;;;;0.68;0.68;;;;;;;;;;5009961;28;61343;-74
2023/09/18 14:35:23;;;;;;;1.70;0.70;;;;;;;;;;5006017;28;58782;-77
2023/09/18 14:37:51;;;;;;;0.85;0.45;;;;;;;;;;5010256;28;58497;-75